Time;durP1;ratioP1;P1;durP2;ratioP2;P2;SDS_P1;SDS_P2;PMS_P1;PMS_P2;Temp;Humidity;BMP_temperature;BMP_pressure;BME280_temperature;BME280_humidity;BME280_pressure;Samples;Min_cycle;Max_cycle;Signal;HPM_P1;HPM_P2
2022/04/09 00:02:14;;;;;;;9.07;3.90;;;;;;;2.55;100.00;99447.72;5047687;28;20039;-61
2022/04/09 00:04:39;;;;;;;10.77;3.80;;;;;;;2.54;100.00;99446.84;5048092;28;20028;-61
2022/04/09 00:07:04;;;;;;;10.30;3.92;;;;;;;2.48;100.00;99452.25;5047167;28;20826;-61
2022/04/09 00:09:30;;;;;;;15.27;5.60;;;;;;;2.50;100.00;99454.81;5047293;28;20758;-62
2022/04/09 00:11:55;;;;;;;11.13;4.28;;;;;;;2.44;100.00;99442.88;5047792;28;20089;-62
2022/04/09 00:14:21;;;;;;;16.45;4.55;;;;;;;2.49;100.00;99453.09;5046978;28;20597;-61
2022/04/09 00:16:46;;;;;;;10.93;4.25;;;;;;;2.45;100.00;99446.31;5047961;28;20030;-62
2022/04/09 00:19:11;;;;;;;12.85;4.55;;;;;;;2.51;100.00;99461.66;5047185;28;20020;-61
2022/04/09 00:21:37;;;;;;;14.93;4.75;;;;;;;2.58;100.00;99478.72;5047007;28;20031;-61
2022/04/09 00:24:02;;;;;;;15.02;4.45;;;;;;;2.55;100.00;99464.13;5048619;28;20067;-61
2022/04/09 00:26:28;;;;;;;10.43;4.07;;;;;;;2.59;100.00;99483.03;5029364;28;20945;-62
2022/04/09 00:28:53;;;;;;;8.50;4.05;;;;;;;2.49;100.00;99482.47;5009703;28;20952;-62
2022/04/09 00:31:19;;;;;;;11.55;4.75;;;;;;;2.50;100.00;99497.09;5028591;28;20032;-61
2022/04/09 00:33:44;;;;;;;11.63;3.72;;;;;;;2.47;100.00;99496.34;5027028;28;20886;-61
2022/04/09 00:36:10;;;;;;;19.45;4.25;;;;;;;2.41;100.00;99496.56;5026481;28;20091;-61
2022/04/09 00:38:35;;;;;;;8.63;3.45;;;;;;;2.41;100.00;99507.78;5028153;28;20044;-61
2022/04/09 00:41:00;;;;;;;12.05;3.80;;;;;;;2.16;100.00;99475.78;5026317;28;20131;-62
2022/04/09 00:43:26;;;;;;;15.25;4.38;;;;;;;2.36;100.00;99514.88;5026217;28;20871;-62
2022/04/09 00:45:51;;;;;;;11.10;4.65;;;;;;;2.39;100.00;99516.50;5026334;28;20021;-61
2022/04/09 00:48:20;;;;;;;10.73;4.50;;;;;;;2.39;100.00;99524.28;5026629;28;20029;-61
2022/04/09 00:50:47;;;;;;;9.95;4.15;;;;;;;2.36;100.00;99529.56;5027681;28;20188;-62
2022/04/09 00:53:14;;;;;;;11.20;4.28;;;;;;;2.26;100.00;99528.16;5026225;28;20940;-61
2022/04/09 00:58:26;;;;;;;14.25;4.20;;;;;;;2.25;100.00;99552.38;5027758;28;20067;-61
2022/04/09 01:00:51;;;;;;;11.13;4.90;;;;;;;2.09;100.00;99541.63;5008274;28;20028;-61
2022/04/09 01:03:18;;;;;;;14.50;4.85;;;;;;;2.10;100.00;99550.22;5025869;28;20936;-61
2022/04/09 01:05:44;;;;;;;15.90;4.53;;;;;;;2.03;100.00;99558.16;5025746;28;20028;-61
2022/04/09 01:08:09;;;;;;;7.78;4.28;;;;;;;1.93;100.00;99551.56;5025841;28;20089;-61
2022/04/09 01:10:35;;;;;;;7.28;4.68;;;;;;;1.86;100.00;99551.81;5007982;28;20039;-60
2022/04/09 01:13:01;;;;;;;9.02;4.35;;;;;;;1.85;100.00;99573.41;4992165;28;20925;-61
2022/04/09 01:15:26;;;;;;;13.43;5.38;;;;;;;1.82;100.00;99579.53;5025816;28;20027;-60
2022/04/09 01:17:52;;;;;;;8.85;4.85;;;;;;;1.82;100.00;99589.88;5026683;28;20105;-61
2022/04/09 01:20:21;;;;;;;14.57;5.03;;;;;;;1.84;100.00;99598.44;5009758;28;20039;-61
2022/04/09 01:22:47;;;;;;;12.50;5.18;;;;;;;1.87;100.00;99598.38;5026965;28;20017;-61
2022/04/09 01:25:13;;;;;;;13.40;5.15;;;;;;;1.92;100.00;99603.44;5007740;28;20962;-61
2022/04/09 01:27:38;;;;;;;10.80;5.53;;;;;;;1.67;100.00;99574.75;5023380;28;20039;-61
2022/04/09 01:30:04;;;;;;;12.70;4.95;;;;;;;1.66;100.00;99582.56;5024937;28;20032;-61
2022/04/09 01:32:30;;;;;;;12.43;5.10;;;;;;;1.78;100.00;99593.44;5025654;28;20976;-61
2022/04/09 01:34:55;;;;;;;11.45;4.80;;;;;;;1.90;100.00;99619.00;5010280;28;20032;-61
2022/04/09 01:37:21;;;;;;;11.25;5.25;;;;;;;1.81;100.00;99606.31;5045787;28;20031;-61
2022/04/09 01:39:46;;;;;;;15.85;5.75;;;;;;;1.86;100.00;99625.13;5045001;28;20189;-62
2022/04/09 01:42:11;;;;;;;15.35;5.57;;;;;;;1.88;100.00;99627.72;5063337;28;20922;-61
2022/04/09 01:44:37;;;;;;;16.25;6.63;;;;;;;1.87;100.00;99634.63;5065089;28;20805;-61
2022/04/09 01:47:04;;;;;;;11.40;5.28;;;;;;;1.88;100.00;99638.91;5066483;28;20042;-61
2022/04/09 01:49:29;;;;;;;18.67;6.28;;;;;;;1.97;100.00;99641.25;5064468;28;20027;-61
2022/04/09 01:51:54;;;;;;;11.52;5.28;;;;;;;1.97;100.00;99651.59;5056153;28;20051;-61
2022/04/09 01:54:20;;;;;;;12.73;5.45;;;;;;;2.02;100.00;99651.50;5044277;28;20059;-61
2022/04/09 01:56:45;;;;;;;22.30;6.18;;;;;;;2.01;100.00;99653.22;5044575;28;20869;-61
2022/04/09 01:59:11;;;;;;;18.45;5.50;;;;;;;1.98;100.00;99658.50;5038705;28;20028;-62
2022/04/09 02:01:37;;;;;;;17.85;6.13;;;;;;;2.02;100.00;99664.44;5043963;28;20024;-61
2022/04/09 02:04:02;;;;;;;12.65;4.88;;;;;;;1.88;100.00;99651.00;5046130;28;20920;-61
2022/04/09 02:06:28;;;;;;;12.38;5.13;;;;;;;1.90;100.00;99669.94;5044751;28;20131;-61
2022/04/09 02:08:54;;;;;;;12.32;4.88;;;;;;;1.93;100.00;99662.94;5044980;28;20020;-60
2022/04/09 02:11:19;;;;;;;19.73;5.18;;;;;;;1.94;100.00;99677.59;5045733;28;20919;-61
2022/04/09 02:13:44;;;;;;;17.63;5.25;;;;;;;1.90;100.00;99673.38;5044410;28;20040;-60
2022/04/09 02:16:10;;;;;;;11.05;5.00;;;;;;;1.94;100.00;99680.19;5042860;28;20094;-61
2022/04/09 02:18:35;;;;;;;18.83;5.68;;;;;;;1.99;100.00;99688.66;5044021;28;20098;-61
2022/04/09 02:21:01;;;;;;;19.00;5.20;;;;;;;2.06;100.00;99684.19;5044324;28;20055;-61
2022/04/09 02:23:26;;;;;;;15.68;5.65;;;;;;;2.18;100.00;99690.75;5052775;28;20024;-62
2022/04/09 02:25:52;;;;;;;26.13;5.95;;;;;;;2.34;100.00;99705.00;4993610;28;1450960;-62
2022/04/09 02:28:17;;;;;;;18.45;5.72;;;;;;;2.37;100.00;99697.13;5045117;28;20098;-62
2022/04/09 02:30:43;;;;;;;12.48;5.47;;;;;;;2.43;100.00;99713.34;5044871;28;20024;-61
2022/04/09 02:33:08;;;;;;;14.80;5.72;;;;;;;2.38;100.00;99709.19;5046705;28;20034;-61
2022/04/09 02:35:33;;;;;;;14.98;5.47;;;;;;;2.33;100.00;99701.53;5045094;28;21007;-61
2022/04/09 02:37:59;;;;;;;17.80;6.15;;;;;;;2.37;100.00;99707.50;5045462;28;20922;-61
2022/04/09 02:40:24;;;;;;;21.48;5.78;;;;;;;2.31;100.00;99718.03;5045418;28;20036;-61
2022/04/09 02:42:51;;;;;;;16.65;5.68;;;;;;;2.22;100.00;99718.31;5043987;28;20134;-61
2022/04/09 02:45:16;;;;;;;18.52;5.88;;;;;;;2.05;100.00;99701.47;5044267;28;20816;-61
2022/04/09 02:47:41;;;;;;;21.20;5.85;;;;;;;2.08;100.00;99710.03;5044740;28;20028;-61
2022/04/09 02:50:07;;;;;;;19.60;5.43;;;;;;;2.09;100.00;99727.31;5046062;28;20105;-61
2022/04/09 02:52:39;;;;;;;20.80;5.97;;;;;;;2.05;100.00;99727.38;5045324;28;20028;-61
2022/04/09 02:55:05;;;;;;;13.50;5.40;;;;;;;1.93;100.00;99725.09;5046191;28;20028;-61
2022/04/09 02:57:35;;;;;;;13.93;5.03;;;;;;;2.01;100.00;99740.44;5028000;28;20024;-61
2022/04/09 03:00:01;;;;;;;14.27;5.80;;;;;;;1.97;100.00;99744.00;5044948;28;20035;-60
2022/04/09 03:02:27;;;;;;;21.77;6.30;;;;;;;1.92;100.00;99726.00;5044499;28;20034;-61
2022/04/09 03:04:53;;;;;;;12.43;5.03;;;;;;;1.98;100.00;99751.75;5044281;28;20032;-60
2022/04/09 03:07:19;;;;;;;16.08;5.35;;;;;;;1.90;100.00;99745.91;5046043;28;20032;-60
2022/04/09 03:09:44;;;;;;;19.30;6.28;;;;;;;1.90;100.00;99753.69;5046601;28;20032;-60
2022/04/09 03:12:11;;;;;;;15.98;6.00;;;;;;;1.85;100.00;99747.78;5045463;28;20876;-60
2022/04/09 03:14:36;;;;;;;18.27;6.05;;;;;;;1.81;100.00;99740.13;5044769;28;20024;-60
2022/04/09 03:17:02;;;;;;;13.80;4.93;;;;;;;1.88;100.00;99770.16;5044292;28;20190;-61
2022/04/09 03:19:27;;;;;;;16.52;6.30;;;;;;;1.65;100.00;99736.22;5044336;28;20025;-61
2022/04/09 03:21:52;;;;;;;11.98;6.07;;;;;;;1.74;100.00;99757.53;5044303;28;20028;-61
2022/04/09 03:24:18;;;;;;;15.90;5.63;;;;;;;1.70;100.00;99762.81;5044406;28;20027;-61
2022/04/09 03:26:44;;;;;;;22.33;5.63;;;;;;;1.62;100.00;99751.81;5045233;28;20091;-61
2022/04/09 03:29:09;;;;;;;14.18;5.55;;;;;;;1.53;100.00;99740.78;5049311;28;20131;-61
2022/04/09 03:31:35;;;;;;;15.35;5.55;;;;;;;1.79;100.00;99784.16;5039372;28;20024;-61
2022/04/09 03:34:03;;;;;;;12.93;5.10;;;;;;;1.74;100.00;99778.25;5047562;28;20131;-61
2022/04/09 03:36:28;;;;;;;21.02;5.80;;;;;;;1.77;100.00;99796.31;5031333;28;20139;-61
2022/04/09 03:38:54;;;;;;;22.05;6.45;;;;;;;1.64;100.00;99792.31;5040157;28;21005;-60
2022/04/09 03:41:19;;;;;;;14.68;5.43;;;;;;;1.62;100.00;99788.94;5046994;28;20032;-61
2022/04/09 03:43:46;;;;;;;17.25;5.10;;;;;;;1.38;100.00;99745.50;5048618;28;20928;-61
2022/04/09 03:46:11;;;;;;;12.48;5.53;;;;;;;1.61;100.00;99792.41;5047838;28;20028;-61
2022/04/09 03:48:37;;;;;;;24.38;5.95;;;;;;;1.62;100.00;99814.81;5048318;28;20028;-61
2022/04/09 03:51:02;;;;;;;23.77;6.70;;;;;;;1.55;100.00;99808.06;5047529;28;20884;-60
2022/04/09 03:53:27;;;;;;;18.98;5.50;;;;;;;1.61;100.00;99818.28;5047011;28;20085;-61
2022/04/09 03:55:53;;;;;;;12.52;5.28;;;;;;;1.56;100.00;99820.09;5047772;28;20097;-61
2022/04/09 03:58:19;;;;;;;13.73;5.80;;;;;;;1.49;100.00;99822.00;5048680;28;20028;-61
2022/04/09 04:00:45;;;;;;;15.52;5.63;;;;;;;1.50;100.00;99825.44;5047270;28;20833;-61
2022/04/09 04:03:11;;;;;;;13.25;5.60;;;;;;;1.42;100.00;99833.38;5047393;28;20042;-60
2022/04/09 04:05:37;;;;;;;21.27;6.50;;;;;;;1.48;100.00;99842.75;5048410;28;20028;-60
2022/04/09 04:08:06;;;;;;;23.33;7.45;;;;;;;1.51;100.00;99842.69;5048301;28;20233;-61
2022/04/09 04:10:34;;;;;;;18.55;7.07;;;;;;;1.65;100.00;99845.81;5030033;28;20225;-61
2022/04/09 04:13:00;;;;;;;26.90;8.73;;;;;;;1.69;100.00;99837.06;5049085;28;20020;-61
2022/04/09 04:15:26;;;;;;;24.08;7.47;;;;;;;1.86;100.00;99840.09;5048605;28;20063;-61
2022/04/09 04:17:51;;;;;;;23.58;6.50;;;;;;;1.92;100.00;99849.47;5047882;28;20028;-61
2022/04/09 04:20:17;;;;;;;20.70;8.35;;;;;;;1.96;100.00;99851.94;5046430;28;20886;-60
2022/04/09 04:22:42;;;;;;;16.75;7.57;;;;;;;1.92;100.00;99846.91;5046962;28;20027;-61
2022/04/09 04:25:09;;;;;;;18.80;6.63;;;;;;;2.00;100.00;99853.56;5046469;28;20147;-61
2022/04/09 04:27:40;;;;;;;15.10;6.03;;;;;;;2.05;100.00;99867.28;5028939;28;20945;-61
2022/04/09 04:30:06;;;;;;;19.35;6.68;;;;;;;2.01;100.00;99860.47;5046346;28;20789;-61
2022/04/09 04:32:32;;;;;;;18.02;6.22;;;;;;;1.97;100.00;99865.75;5046191;28;20970;-61
2022/04/09 04:34:57;;;;;;;17.52;7.63;;;;;;;1.95;100.00;99878.75;5047490;28;20028;-61
2022/04/09 04:37:22;;;;;;;21.83;7.40;;;;;;;1.83;100.00;99873.00;5046003;28;20779;-61
2022/04/09 04:39:48;;;;;;;30.95;7.07;;;;;;;1.84;100.00;99883.31;5045221;28;20873;-61
2022/04/09 04:42:13;;;;;;;16.75;6.43;;;;;;;1.84;100.00;99898.00;5046190;28;20106;-61
2022/04/09 04:44:39;;;;;;;20.67;6.30;;;;;;;1.77;100.00;99899.88;5047973;28;20192;-61
2022/04/09 04:47:04;;;;;;;21.98;6.40;;;;;;;1.73;100.00;99902.56;5046797;28;20113;-61
2022/04/09 04:49:30;;;;;;;22.02;7.22;;;;;;;1.67;100.00;99900.13;5047300;28;20030;-61
2022/04/09 04:51:55;;;;;;;16.20;7.28;;;;;;;1.70;100.00;99916.44;5046529;28;20127;-60
2022/04/09 04:54:20;;;;;;;14.55;6.85;;;;;;;1.69;100.00;99913.91;5046844;28;20039;-61
2022/04/09 04:56:46;;;;;;;21.88;6.60;;;;;;;1.70;100.00;99916.44;5047440;28;20078;-61
2022/04/09 04:59:12;;;;;;;23.88;6.97;;;;;;;1.70;100.00;99925.94;5045333;28;20063;-61
2022/04/09 05:01:40;;;;;;;16.58;7.18;;;;;;;1.66;100.00;99925.16;5047329;28;20626;-61
2022/04/09 05:04:06;;;;;;;20.45;6.47;;;;;;;1.66;100.00;99924.31;5045768;28;20024;-61
2022/04/09 05:06:31;;;;;;;16.52;6.40;;;;;;;1.40;100.00;99899.00;5045099;28;20126;-61
2022/04/09 05:08:56;;;;;;;21.77;7.30;;;;;;;1.60;100.00;99938.25;5046358;28;20058;-61
2022/04/09 05:11:22;;;;;;;21.30;7.30;;;;;;;1.59;100.00;99939.13;5048274;28;20059;-61
2022/04/09 05:13:48;;;;;;;13.02;6.10;;;;;;;1.62;100.00;99956.34;5048195;28;20032;-61
2022/04/09 05:16:14;;;;;;;27.25;7.78;;;;;;;1.61;100.00;99957.22;5047467;28;20098;-61
2022/04/09 05:18:39;;;;;;;16.55;6.75;;;;;;;1.52;100.00;99937.56;5031581;28;20980;-61
2022/04/09 05:21:05;;;;;;;23.45;8.40;;;;;;;1.63;100.00;99956.28;5047108;28;20135;-61
2022/04/09 05:23:30;;;;;;;16.63;7.53;;;;;;;1.65;100.00;99964.91;5048117;28;20313;-61
2022/04/09 05:25:56;;;;;;;20.08;7.05;;;;;;;1.60;100.00;99955.50;5047971;28;20036;-61
2022/04/09 05:28:21;;;;;;;20.00;7.55;;;;;;;1.33;100.00;99897.41;5047044;28;20032;-61
2022/04/09 05:30:47;;;;;;;19.50;7.00;;;;;;;1.83;100.00;99959.31;5047426;28;20024;-61
2022/04/09 05:33:12;;;;;;;21.48;7.00;;;;;;;1.94;100.00;99967.72;5046838;28;20020;-61
2022/04/09 05:35:37;;;;;;;19.20;6.75;;;;;;;2.00;100.00;99967.56;5046732;28;20568;-61
2022/04/09 05:38:03;;;;;;;21.23;6.05;;;;;;;1.98;100.00;99959.00;5046555;28;20035;-61
2022/04/09 05:40:29;;;;;;;16.17;5.40;;;;;;;2.04;100.00;99957.97;5047462;28;20863;-60
2022/04/09 05:42:55;;;;;;;16.17;6.15;;;;;;;2.22;100.00;99993.00;5047209;28;20031;-60
2022/04/09 05:45:21;;;;;;;17.42;6.15;;;;;;;1.95;100.00;99964.25;5046779;28;20816;-61
2022/04/09 05:47:47;;;;;;;17.27;5.75;;;;;;;2.20;100.00;100018.09;5045978;28;20072;-61
2022/04/09 05:50:14;;;;;;;24.83;8.27;;;;;;;2.23;100.00;100005.91;5041098;28;20027;-61
2022/04/09 05:52:40;;;;;;;18.45;6.50;;;;;;;2.26;100.00;100008.44;5048571;28;20059;-61
2022/04/09 05:55:06;;;;;;;11.48;6.18;;;;;;;2.29;100.00;100005.78;5046627;28;20040;-61
2022/04/09 05:57:33;;;;;;;17.25;6.45;;;;;;;2.36;100.00;100009.09;5047162;28;20024;-61
2022/04/09 05:59:59;;;;;;;20.10;6.60;;;;;;;2.40;100.00;100013.31;5044508;28;20399;-61
2022/04/09 06:02:25;;;;;;;16.73;6.22;;;;;;;2.41;100.00;100004.63;5044732;28;20875;-61
2022/04/09 06:04:50;;;;;;;15.93;6.40;;;;;;;2.47;100.00;100012.25;5043514;28;20032;-61
2022/04/09 06:07:15;;;;;;;21.15;6.93;;;;;;;2.61;100.00;100020.56;5043860;28;20084;-61
2022/04/09 06:09:42;;;;;;;12.63;6.15;;;;;;;2.73;100.00;100020.28;5044394;28;20550;-61
2022/04/09 06:12:08;;;;;;;12.95;5.95;;;;;;;2.76;100.00;100007.25;5044526;28;20234;-61
2022/04/09 06:14:37;;;;;;;23.08;7.75;;;;;;;2.87;100.00;100009.56;5045851;28;20028;-61
2022/04/09 06:17:02;;;;;;;19.70;8.38;;;;;;;2.96;100.00;100024.91;5045989;28;20031;-62
2022/04/09 06:19:29;;;;;;;13.65;6.85;;;;;;;3.02;100.00;100030.78;5044730;28;20086;-61
2022/04/09 06:21:55;;;;;;;13.23;5.95;;;;;;;3.13;100.00;100047.81;5044453;28;20552;-61
2022/04/09 06:24:20;;;;;;;16.80;6.85;;;;;;;3.25;100.00;100044.88;5045556;28;20031;-61
2022/04/09 06:26:46;;;;;;;17.00;6.50;;;;;;;3.39;100.00;100051.44;5044261;28;20922;-61
2022/04/09 06:29:11;;;;;;;16.02;5.75;;;;;;;3.52;100.00;100067.53;5044195;28;20020;-60
2022/04/09 06:31:37;;;;;;;14.13;6.07;;;;;;;3.57;100.00;100063.09;5045488;28;20900;-61
2022/04/09 06:34:02;;;;;;;17.95;5.18;;;;;;;3.65;100.00;100068.91;5044286;28;20937;-60
2022/04/09 06:36:27;;;;;;;20.98;5.03;;;;;;;3.71;100.00;100086.94;5044293;28;20035;-60
2022/04/09 06:38:53;;;;;;;19.58;6.43;;;;;;;3.73;100.00;100079.09;5036312;28;20903;-60
2022/04/09 06:41:19;;;;;;;24.38;5.90;;;;;;;3.86;100.00;100090.84;5026439;28;20024;-60
2022/04/09 06:43:47;;;;;;;20.08;6.20;;;;;;;3.99;100.00;100085.25;5044559;28;20810;-61
2022/04/09 06:46:13;;;;;;;14.98;5.47;;;;;;;4.16;100.00;100078.75;5044839;28;20082;-61
2022/04/09 06:48:39;;;;;;;18.13;5.88;;;;;;;4.20;100.00;100077.72;5045198;28;20851;-60
2022/04/09 06:51:04;;;;;;;20.20;6.53;;;;;;;4.28;100.00;100087.03;5045778;28;20072;-61
2022/04/09 06:53:30;;;;;;;20.33;6.53;;;;;;;4.18;100.00;100085.59;5046135;28;20847;-60
2022/04/09 06:55:55;;;;;;;20.23;6.80;;;;;;;4.17;100.00;100101.22;5045092;28;20032;-60
2022/04/09 06:58:20;;;;;;;13.98;6.32;;;;;;;4.20;100.00;100109.78;5044948;28;20966;-60
2022/04/09 07:00:46;;;;;;;15.63;6.55;;;;;;;4.23;100.00;100111.44;5044519;28;20032;-60
2022/04/09 07:03:12;;;;;;;16.88;6.85;;;;;;;4.31;100.00;100117.28;5048134;28;20020;-61
2022/04/09 07:05:38;;;;;;;13.45;5.95;;;;;;;4.52;100.00;100127.06;5039106;28;20131;-60
2022/04/09 07:08:07;;;;;;;18.63;6.95;;;;;;;4.56;100.00;100118.28;5047421;28;20939;-61
2022/04/09 07:10:33;;;;;;;17.00;8.02;;;;;;;4.57;100.00;100119.94;5047157;28;20089;-60
2022/04/09 07:12:58;;;;;;;16.05;5.65;;;;;;;4.59;100.00;100112.97;5049193;28;20024;-60
2022/04/09 07:15:23;;;;;;;12.50;3.80;;;;;;;4.74;100.00;100148.91;5048945;28;20036;-60
2022/04/09 07:17:49;;;;;;;15.00;4.57;;;;;;;4.74;100.00;100148.06;5049586;28;20054;-61
2022/04/09 07:20:15;;;;;;;11.95;4.10;;;;;;;4.70;100.00;100147.31;5048230;28;20024;-60
2022/04/09 07:22:40;;;;;;;11.38;4.15;;;;;;;4.72;100.00;100155.06;5047756;28;20887;-60
2022/04/09 07:25:06;;;;;;;8.40;4.28;;;;;;;4.69;100.00;100148.22;5048081;28;20117;-61
2022/04/09 07:27:40;;;;;;;12.60;4.47;;;;;;;4.57;100.00;100143.38;5047823;28;20028;-61
2022/04/09 07:30:08;;;;;;;12.02;3.42;;;;;;;4.37;100.00;100150.91;5050398;28;20899;-60
2022/04/09 07:32:33;;;;;;;15.10;3.80;;;;;;;4.09;100.00;100130.88;5048330;28;20916;-60
2022/04/09 07:34:59;;;;;;;14.70;4.40;;;;;;;4.22;100.00;100140.97;5048148;28;20036;-61
2022/04/09 07:37:25;;;;;;;11.25;4.25;;;;;;;4.51;100.00;100161.75;5049973;28;20030;-61
2022/04/09 07:39:50;;;;;;;15.88;4.10;;;;;;;4.83;100.00;100159.06;5047469;28;20028;-62
2022/04/09 07:42:15;;;;;;;12.43;4.32;;;;;;;4.95;100.00;100148.25;5048816;28;20133;-62
2022/04/09 07:44:41;;;;;;;19.48;4.47;;;;;;;5.11;100.00;100164.25;5047128;28;20058;-61
2022/04/09 07:47:06;;;;;;;11.35;4.57;;;;;;;5.23;100.00;100165.63;5047133;28;20606;-61
2022/04/09 07:49:31;;;;;;;14.48;5.45;;;;;;;5.39;100.00;100153.78;5047453;28;20040;-61
2022/04/09 07:51:57;;;;;;;15.25;5.38;;;;;;;5.65;100.00;100165.03;5047704;28;20062;-61
2022/04/09 07:54:24;;;;;;;20.13;5.30;;;;;;;5.73;100.00;100172.59;5047195;28;20777;-61
2022/04/09 07:56:49;;;;;;;14.98;5.00;;;;;;;5.63;100.00;100169.47;5049480;28;20247;-61
2022/04/09 07:59:15;;;;;;;12.20;4.78;;;;;;;5.71;100.00;100171.81;5047443;28;20529;-62
2022/04/09 08:01:40;;;;;;;16.70;4.35;;;;;;;5.68;100.00;100178.88;5048342;28;20035;-62
2022/04/09 08:04:06;;;;;;;18.27;4.72;;;;;;;5.57;100.00;100153.19;5047383;28;20032;-61
2022/04/09 08:06:32;;;;;;;12.18;4.30;;;;;;;5.75;100.00;100172.53;5048042;28;20943;-61
2022/04/09 08:08:58;;;;;;;14.38;5.20;;;;;;;5.81;100.00;100174.97;5048352;28;20032;-61
2022/04/09 08:11:23;;;;;;;11.30;4.65;;;;;;;5.87;100.00;100183.44;5048308;28;20059;-61
2022/04/09 08:13:49;;;;;;;14.55;5.68;;;;;;;5.93;100.00;100183.22;5048829;28;20031;-61
2022/04/09 08:16:14;;;;;;;9.73;4.85;;;;;;;5.95;100.00;100175.34;5046467;28;20020;-61
2022/04/09 08:18:40;;;;;;;9.63;4.20;;;;;;;5.76;100.00;100130.78;5047820;28;20028;-61
2022/04/09 08:21:06;;;;;;;20.17;5.60;;;;;;;6.12;100.00;100186.88;5047294;28;20148;-61
2022/04/09 08:23:31;;;;;;;17.17;4.78;;;;;;;6.22;100.00;100189.19;5047606;28;20799;-61
2022/04/09 08:25:57;;;;;;;10.60;4.97;;;;;;;6.29;100.00;100195.88;5048202;28;20105;-61
2022/04/09 08:28:24;;;;;;;19.92;4.15;;;;;;;6.50;100.00;100200.31;5030008;28;20959;-61
2022/04/09 08:30:49;;;;;;;17.17;4.70;;;;;;;6.50;100.00;100200.31;5048247;28;20024;-61
2022/04/09 08:33:15;;;;;;;11.95;4.63;;;;;;;6.60;100.00;100201.66;5047639;28;20036;-61
2022/04/09 08:35:43;;;;;;;19.17;4.60;;;;;;;6.76;100.00;100215.03;5047240;28;20875;-62
2022/04/09 08:38:08;;;;;;;11.18;3.97;;;;;;;6.74;100.00;100214.22;5047867;28;20051;-61
2022/04/09 08:40:36;;;;;;;14.43;4.78;;;;;;;6.77;100.00;100209.72;5046716;28;20028;-62
2022/04/09 08:43:01;;;;;;;9.85;4.00;;;;;;;6.90;100.00;100215.31;5046508;28;20127;-62
2022/04/09 08:45:27;;;;;;;10.70;3.70;;;;;;;6.95;100.00;100198.59;5031190;28;20032;-61
2022/04/09 08:47:53;;;;;;;11.65;4.35;;;;;;;7.14;100.00;100217.84;5029236;28;20137;-61
2022/04/09 08:50:19;;;;;;;12.65;4.55;;;;;;;7.22;100.00;100217.56;5047097;28;20043;-62
2022/04/09 08:52:45;;;;;;;10.77;3.58;;;;;;;7.31;100.00;100211.97;5046389;28;20024;-61
2022/04/09 08:55:13;;;;;;;13.80;4.25;;;;;;;7.63;100.00;100224.59;5046546;28;20083;-61
2022/04/09 08:57:43;;;;;;;11.40;4.22;;;;;;;7.97;100.00;100216.19;5030860;28;20082;-61
2022/04/09 09:00:10;;;;;;;18.50;4.07;;;;;;;8.39;100.00;100215.28;5047883;28;20850;-62
2022/04/09 09:02:36;;;;;;;14.60;4.05;;;;;;;8.55;100.00;100195.38;5047837;28;20036;-61
2022/04/09 09:05:03;;;;;;;6.30;3.47;;;;;;;8.25;100.00;100170.53;5046881;28;20264;-62
2022/04/09 09:07:28;;;;;;;23.58;4.18;;;;;;;8.73;100.00;100216.31;5029806;28;20024;-61
2022/04/09 09:10:13;;;;;;;11.23;3.67;;;;;;;8.76;100.00;100217.09;5028175;28;20028;-61
2022/04/09 09:12:39;;;;;;;10.32;3.75;;;;;;;8.77;100.00;100227.50;5045479;28;20063;-61
2022/04/09 09:15:04;;;;;;;8.00;3.95;;;;;;;8.78;100.00;100233.59;5045928;28;20028;-61
2022/04/09 09:17:30;;;;;;;10.63;3.42;;;;;;;8.66;100.00;100219.28;5047294;28;20024;-61
2022/04/09 09:19:56;;;;;;;8.73;3.38;;;;;;;8.67;100.00;100228.84;5046969;28;20899;-62
2022/04/09 09:22:34;;;;;;;8.40;2.70;;;;;;;8.66;100.00;100208.81;5043060;28;20091;-61
2022/04/09 09:25:04;;;;;;;12.35;3.72;;;;;;;8.88;100.00;100227.03;5039349;28;20028;-61
2022/04/09 09:27:30;;;;;;;7.38;3.55;;;;;;;8.75;100.00;100218.88;5044953;28;20036;-61
2022/04/09 09:29:56;;;;;;;6.90;3.50;;;;;;;8.95;100.00;100231.91;5046052;28;20237;-62
2022/04/09 09:32:25;;;;;;;12.68;4.15;;;;;;;8.93;100.00;100202.28;5046080;28;20032;-62
2022/04/09 09:34:57;;;;;;;12.20;4.50;;;;;;;9.15;99.82;100229.22;5044200;28;20077;-61
2022/04/09 09:37:24;;;;;;;5.97;3.33;;;;;;;9.39;97.02;100231.59;5046006;28;20251;-61
2022/04/09 09:39:50;;;;;;;8.80;3.03;;;;;;;9.37;92.06;100233.41;5046509;28;20020;-61
2022/04/09 09:42:23;;;;;;;7.53;3.58;;;;;;;9.27;91.11;100247.88;5039457;28;20868;-61
2022/04/09 09:44:49;;;;;;;6.93;3.10;;;;;;;9.09;91.10;100239.97;5026059;28;20223;-62
2022/04/09 09:47:15;;;;;;;6.57;3.08;;;;;;;8.98;90.06;100242.25;5026331;28;20024;-62
2022/04/09 09:49:59;;;;;;;7.10;2.38;;;;;;;8.95;92.72;100239.78;5026029;28;20035;-62
2022/04/09 09:52:28;;;;;;;6.40;3.17;;;;;;;8.95;91.39;100242.41;5025736;28;20032;-61
2022/04/09 09:54:55;;;;;;;10.27;3.67;;;;;;;8.99;90.47;100214.28;5025673;28;20098;-62
2022/04/09 09:57:21;;;;;;;8.32;3.50;;;;;;;9.51;91.22;100241.47;5026865;28;20158;-61
2022/04/09 09:59:49;;;;;;;6.57;3.13;;;;;;;9.84;89.83;100239.81;5027217;28;20059;-61
2022/04/09 10:02:19;;;;;;;8.63;2.85;;;;;;;9.63;84.46;100212.06;5027412;28;20032;-61
2022/04/09 10:04:46;;;;;;;8.45;3.35;;;;;;;9.67;86.29;100242.44;5027014;28;20024;-62
2022/04/09 10:07:13;;;;;;;8.48;3.10;;;;;;;9.40;85.57;100213.16;5028944;28;20084;-61
2022/04/09 10:09:39;;;;;;;11.80;4.05;;;;;;;9.10;85.02;100233.81;5036574;28;20022;-61
2022/04/09 10:12:08;;;;;;;7.15;3.00;;;;;;;8.93;86.85;100252.09;5045296;28;20024;-61
2022/04/09 10:14:34;;;;;;;7.85;2.63;;;;;;;8.75;86.80;100241.59;5045210;28;20043;-61
2022/04/09 10:17:00;;;;;;;13.57;3.42;;;;;;;8.65;89.18;100246.41;5027656;28;20090;-61
2022/04/09 10:19:25;;;;;;;5.05;2.47;;;;;;;8.75;85.10;100239.84;5029409;28;20031;-62
2022/04/09 10:21:51;;;;;;;6.13;2.40;;;;;;;8.94;83.82;100230.22;5045075;28;20036;-61
2022/04/09 10:24:20;;;;;;;7.28;2.80;;;;;;;9.20;80.00;100221.13;5044682;28;20118;-61
2022/04/09 10:26:45;;;;;;;6.28;2.80;;;;;;;9.36;80.14;100195.03;5045836;28;20495;-61
2022/04/09 10:29:11;;;;;;;7.40;2.72;;;;;;;9.86;76.07;100243.25;5048892;28;20035;-62
2022/04/09 10:31:38;;;;;;;8.65;2.55;;;;;;;9.88;76.56;100241.38;5053065;28;20475;-62
2022/04/09 10:34:06;;;;;;;5.53;2.85;;;;;;;9.66;77.11;100236.34;5027210;28;20089;-62
2022/04/09 10:36:54;;;;;;;16.75;3.30;;;;;;;9.42;77.54;100248.03;5044347;28;20118;-62
2022/04/09 10:39:23;;;;;;;5.55;2.55;;;;;;;9.05;79.39;100254.16;5042781;28;20036;-61
2022/04/09 10:41:49;;;;;;;4.55;2.17;;;;;;;8.57;80.65;100230.19;5050077;28;20032;-62
2022/04/09 10:44:35;;;;;;;5.18;2.05;;;;;;;8.26;80.17;100276.91;5048924;28;20040;-61
2022/04/09 10:47:04;;;;;;;6.80;2.85;;;;;;;7.98;81.78;100249.28;5049214;28;20040;-61
2022/04/09 10:49:30;;;;;;;8.27;2.33;;;;;;;8.06;82.68;100244.59;5050487;28;20040;-62
2022/04/09 10:52:06;;;;;;;5.07;2.13;;;;;;;8.36;83.88;100246.81;5050452;28;20082;-61
2022/04/09 10:54:35;;;;;;;5.30;2.78;;;;;;;8.79;83.65;100245.78;5049864;28;20089;-61
2022/04/09 10:57:24;;;;;;;4.88;2.28;;;;;;;9.33;80.07;100226.66;5049828;28;20038;-61
2022/04/09 10:59:57;;;;;;;5.32;2.45;;;;;;;9.97;76.23;100254.03;5040131;28;20812;-60
2022/04/09 11:02:23;;;;;;;6.97;2.85;;;;;;;10.06;75.16;100256.22;5049875;28;20020;-61
2022/04/09 11:04:48;;;;;;;4.20;2.13;;;;;;;9.58;76.45;100258.63;5049491;28;20782;-61
2022/04/09 11:07:16;;;;;;;10.07;1.83;;;;;;;8.05;80.80;100247.25;5049318;28;20064;-61
2022/04/09 11:09:58;;;;;;;4.47;1.70;;;;;;;7.06;100.00;100251.25;5050167;28;20091;-60
2022/04/09 11:12:39;;;;;;;6.65;1.85;;;;;;;6.74;100.00;100243.78;5056001;28;20036;-61
2022/04/09 11:15:21;;;;;;;2.45;1.30;;;;;;;6.87;100.00;100250.25;5048697;28;20048;-61
2022/04/09 11:17:46;;;;;;;5.18;2.20;;;;;;;7.36;100.00;100251.00;5048629;28;20832;-60
2022/04/09 11:20:15;;;;;;;7.60;2.00;;;;;;;7.93;96.31;100243.41;5049577;28;20094;-61
2022/04/09 11:22:44;;;;;;;6.53;2.58;;;;;;;8.12;84.69;100238.22;5048511;28;20027;-62
2022/04/09 11:25:26;;;;;;;4.40;2.10;;;;;;;8.82;90.15;100233.38;5047977;28;20031;-60